Time;durP1;ratioP1;P1;durP2;ratioP2;P2;SDS_P1;SDS_P2;PMS_P1;PMS_P2;Temp;Humidity;BMP_temperature;BMP_pressure;BME280_temperature;BME280_humidity;BME280_pressure;Samples;Min_cycle;Max_cycle;Signal;HPM_P1;HPM_P2
2021/12/01 00:01:34;;;;;;;3.47;2.55;;;;;;;-4.59;75.37;96037.78;5092710;28;20355;-65
2021/12/01 00:03:59;;;;;;;4.85;2.83;;;;;;;-4.51;75.38;96041.31;5092782;28;20016;-64
2021/12/01 00:06:25;;;;;;;4.75;2.60;;;;;;;-4.47;75.46;96039.63;5092610;28;20070;-62
2021/12/01 00:08:50;;;;;;;3.08;2.63;;;;;;;-4.45;75.74;96027.75;5092647;28;20442;-64
2021/12/01 00:11:16;;;;;;;4.13;2.95;;;;;;;-4.41;76.22;96031.19;5092751;28;20036;-65
2021/12/01 00:13:41;;;;;;;4.10;2.50;;;;;;;-4.43;76.09;96028.59;5092673;28;20039;-62
2021/12/01 00:16:08;;;;;;;3.15;2.55;;;;;;;-4.44;76.06;96037.13;5092590;28;20028;-65
2021/12/01 00:18:33;;;;;;;4.55;2.97;;;;;;;-4.46;76.18;96039.66;5092402;28;20036;-67
2021/12/01 00:20:59;;;;;;;4.75;3.13;;;;;;;-4.44;76.58;96042.22;5094492;28;20047;-65
2021/12/01 00:23:25;;;;;;;3.92;2.70;;;;;;;-4.42;76.42;96040.56;5096226;28;20024;-65
2021/12/01 00:25:52;;;;;;;4.10;2.53;;;;;;;-4.25;75.70;96047.59;5096228;28;20352;-66
2021/12/01 00:28:18;;;;;;;3.40;2.30;;;;;;;-4.21;75.64;96057.00;5096055;28;20107;-65
2021/12/01 00:30:43;;;;;;;3.15;2.67;;;;;;;-4.17;75.19;96045.97;5095953;28;20107;-63
2021/12/01 00:33:12;;;;;;;3.05;2.40;;;;;;;-4.19;74.92;96050.19;5095955;28;20020;-66
2021/12/01 00:35:38;;;;;;;2.80;2.50;;;;;;;-4.27;74.73;96049.25;5095976;28;20119;-62
2021/12/01 00:38:04;;;;;;;2.58;2.08;;;;;;;-4.29;74.91;96046.66;5095808;28;20491;-64
2021/12/01 00:40:30;;;;;;;4.05;2.20;;;;;;;-4.36;75.02;96044.88;5095688;28;20058;-62
2021/12/01 00:42:56;;;;;;;2.15;1.92;;;;;;;-4.36;74.92;96034.66;5095679;28;20039;-62
2021/12/01 00:45:22;;;;;;;3.33;2.20;;;;;;;-4.37;75.34;96035.50;5095862;28;20024;-67
2021/12/01 00:47:50;;;;;;;2.75;2.08;;;;;;;-4.34;75.04;96031.28;5095602;28;20028;-64
2021/12/01 00:50:32;;;;;;;6.18;2.28;;;;;;;-4.35;74.51;96031.25;5095711;28;20115;-63
2021/12/01 00:53:01;;;;;;;3.35;2.25;;;;;;;-4.32;74.48;96038.97;5095543;28;20382;-67
2021/12/01 00:55:27;;;;;;;2.80;2.22;;;;;;;-4.31;74.47;96041.53;5095548;28;20081;-63
2021/12/01 00:57:53;;;;;;;2.70;2.15;;;;;;;-4.38;74.43;96044.84;5095509;28;20414;-65
2021/12/01 01:00:21;;;;;;;2.85;2.40;;;;;;;-4.35;74.48;96052.56;5095508;28;20024;-66
2021/12/01 01:02:47;;;;;;;2.88;2.20;;;;;;;-4.33;74.38;96047.47;5095274;28;20512;-62
2021/12/01 01:05:14;;;;;;;3.30;2.25;;;;;;;-4.38;74.10;96046.53;5095236;28;20034;-64
2021/12/01 01:07:40;;;;;;;3.08;2.10;;;;;;;-4.42;73.96;96050.78;5095416;28;20032;-64
2021/12/01 01:18:22;;;;;;;3.45;2.17;;;;;;;-4.49;74.14;96033.66;5095371;28;20098;-64
2021/12/01 01:20:48;;;;;;;2.85;2.30;;;;;;;-4.54;74.04;96030.19;5094975;28;20052;-66
2021/12/01 01:23:14;;;;;;;3.88;2.30;;;;;;;-4.54;74.27;96020.81;5094902;28;20028;-65
2021/12/01 01:25:39;;;;;;;4.00;2.55;;;;;;;-4.71;74.41;96018.03;5094922;28;20077;-63
2021/12/01 01:28:05;;;;;;;3.88;2.70;;;;;;;-4.68;74.79;96023.19;5094865;28;20038;-65
2021/12/01 01:30:32;;;;;;;3.63;2.35;;;;;;;-4.61;75.05;96026.69;5094862;28;20445;-64
2021/12/01 01:32:57;;;;;;;5.15;2.50;;;;;;;-4.58;74.99;96016.50;5094773;28;20070;-65
2021/12/01 01:35:23;;;;;;;2.33;2.13;;;;;;;-4.67;75.02;95999.38;5094785;28;20474;-64
2021/12/01 01:37:49;;;;;;;3.25;2.70;;;;;;;-4.82;75.01;96003.44;5094545;28;20478;-63
2021/12/01 01:40:14;;;;;;;2.90;2.10;;;;;;;-4.78;75.24;96001.78;5094730;28;20485;-65
2021/12/01 01:42:40;;;;;;;4.70;2.60;;;;;;;-4.77;75.09;96005.19;5094570;28;20024;-63
2021/12/01 01:45:06;;;;;;;2.33;2.10;;;;;;;-4.79;74.74;95996.66;5094493;28;20016;-65
2021/12/01 01:47:32;;;;;;;2.92;2.38;;;;;;;-4.83;74.86;95990.66;5094584;28;20024;-64
2021/12/01 01:52:26;;;;;;;3.20;2.67;;;;;;;-4.79;75.05;95992.41;5094483;28;20386;-64
2021/12/01 01:54:52;;;;;;;3.55;2.55;;;;;;;-4.73;74.72;95989.94;5094285;28;20425;-67
2021/12/01 01:57:18;;;;;;;3.75;2.90;;;;;;;-4.79;74.87;95971.16;5094311;28;20105;-64
2021/12/01 01:59:44;;;;;;;3.92;2.78;;;;;;;-4.79;74.85;95968.59;5094297;28;20052;-64
2021/12/01 02:02:09;;;;;;;2.75;2.40;;;;;;;-4.83;74.49;95965.13;5094193;28;20466;-67
2021/12/01 02:04:35;;;;;;;3.38;2.38;;;;;;;-4.88;74.87;95952.31;5094174;28;20026;-66
2021/12/01 02:07:03;;;;;;;3.08;2.30;;;;;;;-4.86;75.09;95952.31;5094097;28;20412;-62
2021/12/01 02:09:29;;;;;;;4.30;2.38;;;;;;;-4.79;74.95;95960.94;5094137;28;20715;-62
2021/12/01 02:11:59;;;;;;;2.92;2.20;;;;;;;-4.75;74.81;95961.00;5094036;28;20093;-66
2021/12/01 02:14:26;;;;;;;4.40;3.10;;;;;;;-4.76;74.66;95961.81;5094004;28;20028;-64
2021/12/01 02:16:53;;;;;;;25.83;9.70;;;;;;;-4.78;74.86;95947.31;5093851;28;20271;-64
2021/12/01 02:19:19;;;;;;;17.35;6.50;;;;;;;-4.74;74.90;95942.28;5093965;28;20052;-66
2021/12/01 02:21:45;;;;;;;11.85;4.88;;;;;;;-4.73;75.00;95944.00;5093797;28;20078;-63
2021/12/01 02:24:13;;;;;;;10.77;3.35;;;;;;;-4.72;75.00;95935.47;5093930;28;20020;-64
2021/12/01 02:26:44;;;;;;;3.15;2.80;;;;;;;-4.79;74.42;95940.50;5093794;28;20024;-61
2021/12/01 02:29:13;;;;;;;6.13;2.38;;;;;;;-4.83;74.56;95948.13;5093741;28;20024;-63
2021/12/01 02:31:39;;;;;;;3.50;2.50;;;;;;;-4.78;74.90;95942.22;5093761;28;20024;-64
2021/12/01 02:34:08;;;;;;;2.42;2.15;;;;;;;-4.85;75.09;95951.50;5093851;28;20077;-65
2021/12/01 02:36:35;;;;;;;2.50;2.22;;;;;;;-4.77;75.19;95943.94;5093707;28;20016;-65
2021/12/01 02:39:05;;;;;;;2.55;2.00;;;;;;;-4.72;74.89;95942.31;5093645;28;20020;-64
2021/12/01 02:41:32;;;;;;;2.33;1.80;;;;;;;-4.65;75.38;95943.22;5093678;28;20032;-65
2021/12/01 02:44:00;;;;;;;6.32;2.17;;;;;;;-4.59;75.35;95948.41;5093101;28;20028;-65
2021/12/01 02:46:27;;;;;;;3.05;2.35;;;;;;;-4.58;75.89;95958.63;5093433;28;20362;-64
2021/12/01 02:48:53;;;;;;;3.53;2.78;;;;;;;-4.57;75.99;95962.91;5093480;28;20382;-63
2021/12/01 02:51:23;;;;;;;3.17;2.22;;;;;;;-4.50;75.74;95975.75;5093311;28;20036;-65
2021/12/01 02:53:48;;;;;;;4.28;2.63;;;;;;;-4.44;75.30;95961.38;5093414;28;20035;-66
2021/12/01 02:56:16;;;;;;;4.68;2.50;;;;;;;-4.58;75.29;95963.75;5093436;28;20029;-63
2021/12/01 02:58:43;;;;;;;2.97;2.00;;;;;;;-4.50;75.65;95962.97;5093234;28;20031;-63
2021/12/01 03:01:16;;;;;;;4.07;2.20;;;;;;;-4.48;75.36;95953.66;5093273;28;20117;-67
2021/12/01 03:03:42;;;;;;;2.55;2.05;;;;;;;-4.39;75.64;95966.53;5093423;28;20039;-66
2021/12/01 03:06:08;;;;;;;2.65;2.30;;;;;;;-4.37;75.63;95971.66;5093257;28;20097;-67
2021/12/01 03:08:35;;;;;;;2.60;2.08;;;;;;;-4.38;76.19;95972.47;5093221;28;20371;-66
2021/12/01 03:11:02;;;;;;;3.08;2.60;;;;;;;-4.39;76.11;95961.44;5093226;28;20044;-66
2021/12/01 03:13:28;;;;;;;4.35;2.20;;;;;;;-4.25;76.19;95968.38;5093293;28;20028;-65
2021/12/01 03:15:54;;;;;;;3.50;2.50;;;;;;;-4.28;76.58;95945.34;5093072;28;20028;-65
2021/12/01 03:18:21;;;;;;;2.65;2.03;;;;;;;-4.29;76.97;95956.41;5092930;28;20032;-64
2021/12/01 03:20:48;;;;;;;3.20;2.35;;;;;;;-4.23;76.79;95964.13;5092896;28;20126;-66
2021/12/01 03:23:15;;;;;;;2.30;2.10;;;;;;;-4.18;76.74;95960.78;5093186;28;20466;-67
2021/12/01 03:25:41;;;;;;;3.35;2.47;;;;;;;-4.13;76.18;95967.66;5093089;28;20539;-65
2021/12/01 03:28:07;;;;;;;4.47;2.53;;;;;;;-4.14;76.13;95965.94;5093013;28;20035;-62
2021/12/01 03:30:37;;;;;;;3.50;2.45;;;;;;;-4.07;76.45;95968.56;5092963;28;20048;-66
2021/12/01 03:33:10;;;;;;;5.40;2.50;;;;;;;-4.04;76.04;95970.28;5093032;28;20398;-63
2021/12/01 03:35:38;;;;;;;3.15;2.47;;;;;;;-4.02;75.38;95960.97;5093111;28;20053;-67
2021/12/01 03:38:04;;;;;;;3.40;2.70;;;;;;;-4.14;75.98;95953.16;5092843;28;20456;-64
2021/12/01 03:40:30;;;;;;;3.67;2.88;;;;;;;-4.06;75.87;95960.06;5092808;28;20493;-64
2021/12/01 03:42:56;;;;;;;3.55;2.63;;;;;;;-4.12;75.87;95956.59;5092874;28;20028;-63
2021/12/01 03:45:21;;;;;;;5.05;3.25;;;;;;;-4.06;76.00;95961.78;5092902;28;20051;-67
2021/12/01 03:47:47;;;;;;;5.20;3.40;;;;;;;-4.03;76.41;95976.28;5092810;28;20024;-66
2021/12/01 03:50:13;;;;;;;4.43;3.35;;;;;;;-4.03;76.18;95964.38;5092779;28;20023;-67
2021/12/01 03:52:39;;;;;;;3.10;2.50;;;;;;;-3.99;76.19;95965.22;5092849;28;20023;-62
2021/12/01 03:55:06;;;;;;;5.20;2.53;;;;;;;-3.93;75.92;95978.06;5093733;28;20384;-66
2021/12/01 03:57:31;;;;;;;3.63;3.03;;;;;;;-3.86;76.69;95984.09;5096626;28;20048;-67
2021/12/01 03:59:57;;;;;;;3.63;2.78;;;;;;;-3.77;76.50;95984.19;5096578;28;20059;-63
2021/12/01 04:02:22;;;;;;;3.47;2.78;;;;;;;-3.71;76.19;95988.50;5096610;28;20016;-68
2021/12/01 04:04:48;;;;;;;4.57;2.88;;;;;;;-3.68;76.33;95983.41;5096584;28;20108;-66
2021/12/01 04:07:14;;;;;;;3.72;3.00;;;;;;;-3.58;76.80;95984.38;5096528;28;20020;-66
2021/12/01 04:09:41;;;;;;;3.67;2.40;;;;;;;-3.51;76.04;95980.16;5096409;28;20023;-66
2021/12/01 04:12:08;;;;;;;3.70;2.33;;;;;;;-3.42;74.88;95970.00;5096398;28;20094;-64
2021/12/01 04:14:33;;;;;;;4.45;3.10;;;;;;;-3.36;74.69;95977.72;5096314;28;20398;-65
2021/12/01 04:16:59;;;;;;;4.20;2.80;;;;;;;-3.31;75.23;95973.50;5096271;28;20039;-66
2021/12/01 04:19:25;;;;;;;3.47;2.80;;;;;;;-3.19;76.18;95971.88;5096102;28;20031;-66
2021/12/01 04:21:51;;;;;;;4.18;2.80;;;;;;;-3.14;76.29;95967.63;5095896;28;20047;-65
2021/12/01 04:24:17;;;;;;;2.83;2.60;;;;;;;-3.17;76.40;95963.38;5096150;28;20028;-65
2021/12/01 04:26:42;;;;;;;3.67;2.83;;;;;;;-3.15;76.51;95968.50;5096217;28;20031;-67
2021/12/01 04:29:08;;;;;;;3.13;2.35;;;;;;;-3.11;76.15;95972.78;5096076;28;20099;-63
2021/12/01 04:31:35;;;;;;;2.70;2.40;;;;;;;-3.12;76.17;95991.56;5096019;28;20381;-64
2021/12/01 04:34:02;;;;;;;3.22;2.75;;;;;;;-3.08;76.18;95980.47;5096034;28;20020;-65
2021/12/01 04:36:33;;;;;;;3.38;2.45;;;;;;;-2.98;75.74;95975.44;5096012;28;20020;-65
2021/12/01 04:39:00;;;;;;;3.55;2.92;;;;;;;-3.02;75.93;95976.22;5095813;28;20424;-65
2021/12/01 04:41:28;;;;;;;3.95;2.55;;;;;;;-3.11;76.63;95984.72;5095877;28;20020;-66
2021/12/01 04:43:54;;;;;;;2.80;2.53;;;;;;;-3.03;76.56;95985.63;5095896;28;20478;-65
2021/12/01 04:46:20;;;;;;;4.35;2.80;;;;;;;-2.95;75.85;95990.81;5095744;28;20077;-63
2021/12/01 04:48:49;;;;;;;4.07;2.53;;;;;;;-2.99;75.40;95984.81;5095757;28;20116;-64
2021/12/01 04:51:17;;;;;;;3.05;2.78;;;;;;;-3.11;75.69;95983.03;5095711;28;20389;-66
2021/12/01 04:53:43;;;;;;;31.13;23.92;;;;;;;-3.11;75.79;95990.69;5095644;28;20028;-66
2021/12/01 04:56:09;;;;;;;11.38;9.38;;;;;;;-3.09;76.04;95980.47;5095554;28;20474;-64
2021/12/01 04:58:35;;;;;;;6.65;4.80;;;;;;;-3.05;75.87;95967.72;5095348;28;20077;-64
2021/12/01 05:01:02;;;;;;;4.07;3.67;;;;;;;-3.00;75.79;95967.75;5095432;28;20024;-67
2021/12/01 05:03:30;;;;;;;3.78;2.80;;;;;;;-2.94;75.61;95972.03;5095561;28;20539;-63
2021/12/01 05:05:56;;;;;;;3.40;2.90;;;;;;;-2.94;75.40;95982.28;5094955;28;20032;-67
2021/12/01 05:08:23;;;;;;;4.95;2.25;;;;;;;-2.95;75.50;95989.09;5095293;28;20042;-63
2021/12/01 05:10:50;;;;;;;3.00;1.80;;;;;;;-2.96;75.30;95996.75;5095266;28;20020;-68
2021/12/01 05:13:16;;;;;;;2.03;1.65;;;;;;;-3.01;75.44;96001.84;5095261;28;20061;-65
2021/12/01 05:15:42;;;;;;;5.22;1.63;;;;;;;-2.98;75.65;96004.44;5095153;28;20062;-67
2021/12/01 05:18:08;;;;;;;4.70;2.22;;;;;;;-2.96;75.59;95994.19;5095093;28;20028;-67
2021/12/01 05:20:35;;;;;;;3.08;1.73;;;;;;;-2.92;74.74;96001.06;5094876;28;20035;-67
2021/12/01 05:23:01;;;;;;;2.88;1.60;;;;;;;-2.90;74.83;95999.38;5095039;28;20066;-65
2021/12/01 05:25:26;;;;;;;5.22;2.10;;;;;;;-2.83;75.15;96000.28;5094945;28;20048;-66
2021/12/01 05:27:52;;;;;;;2.20;2.00;;;;;;;-2.77;74.81;95994.31;5095012;28;20078;-61
2021/12/01 05:30:20;;;;;;;2.63;2.00;;;;;;;-2.72;75.02;95990.06;5094884;28;20077;-67
2021/12/01 05:32:47;;;;;;;2.35;1.60;;;;;;;-2.79;75.64;95997.72;5094836;28;20428;-64
2021/12/01 05:35:12;;;;;;;2.88;1.40;;;;;;;-2.64;74.99;95995.25;5094738;28;20035;-62
2021/12/01 05:37:38;;;;;;;1.73;1.45;;;;;;;-2.52;75.57;95984.19;5094629;28;20020;-68
2021/12/01 05:40:04;;;;;;;2.45;2.17;;;;;;;-2.43;74.83;95987.69;5094817;28;20028;-65
2021/12/01 05:42:31;;;;;;;4.10;3.03;;;;;;;-2.42;74.36;95979.13;5094584;28;20547;-66
2021/12/01 05:44:56;;;;;;;2.50;1.80;;;;;;;-2.36;74.24;95974.88;5094649;28;20028;-64
2021/12/01 05:47:22;;;;;;;3.10;1.77;;;;;;;-2.26;74.53;95986.03;5094563;28;20077;-64
2021/12/01 05:49:48;;;;;;;1.65;1.40;;;;;;;-2.18;74.91;95987.78;5094633;28;20047;-67
2021/12/01 05:52:15;;;;;;;1.60;1.38;;;;;;;-2.12;74.81;95984.38;5094534;28;20499;-64
2021/12/01 05:54:43;;;;;;;1.77;1.48;;;;;;;-2.14;74.70;95993.75;5094430;28;20027;-66
2021/12/01 05:57:10;;;;;;;2.67;1.50;;;;;;;-2.21;74.71;95976.63;5094515;28;20023;-63
2021/12/01 05:59:35;;;;;;;1.60;1.30;;;;;;;-2.17;74.80;95994.59;5094360;28;20028;-66
2021/12/01 06:02:01;;;;;;;2.10;1.50;;;;;;;-2.14;74.76;95996.31;5094260;28;20039;-63
2021/12/01 06:04:27;;;;;;;2.78;1.70;;;;;;;-2.06;74.21;95997.19;5094269;28;20032;-63
2021/12/01 06:06:53;;;;;;;1.58;1.48;;;;;;;-2.16;74.14;96008.28;5094296;28;20074;-68
2021/12/01 06:09:19;;;;;;;2.30;1.50;;;;;;;-2.07;74.39;95999.75;5094202;28;20411;-65
2021/12/01 06:11:47;;;;;;;4.25;1.15;;;;;;;-1.99;74.36;96007.47;5094257;28;20051;-65
2021/12/01 06:14:16;;;;;;;1.60;1.40;;;;;;;-1.84;73.77;96010.06;5094023;28;20031;-63
2021/12/01 06:16:46;;;;;;;1.88;1.50;;;;;;;-1.69;74.00;96003.25;5094292;28;20024;-62
2021/12/01 06:19:12;;;;;;;1.98;1.13;;;;;;;-1.13;74.45;96016.16;5093243;28;20028;-63
2021/12/01 06:21:38;;;;;;;3.55;1.10;;;;;;;0.09;69.70;96014.13;5093661;28;20044;-64
2021/12/01 06:24:04;;;;;;;1.10;1.00;;;;;;;0.77;67.86;96026.56;5093877;28;20024;-63
2021/12/01 06:26:30;;;;;;;1.25;1.15;;;;;;;1.62;65.38;96020.66;5093939;28;20016;-63
2021/12/01 06:28:56;;;;;;;1.90;1.13;;;;;;;2.10;62.57;96018.38;5093815;28;20028;-63
2021/12/01 06:31:22;;;;;;;1.40;1.15;;;;;;;2.41;61.79;96012.84;5092496;28;20024;-64
2021/12/01 06:33:48;;;;;;;4.22;1.55;;;;;;;2.42;62.15;96016.25;5093658;28;20057;-67
2021/12/01 06:36:14;;;;;;;5.28;1.67;;;;;;;2.64;61.86;96001.28;5093749;28;20472;-67
2021/12/01 06:38:41;;;;;;;1.17;1.08;;;;;;;2.59;58.95;95998.78;5093722;28;20035;-63
2021/12/01 06:41:08;;;;;;;2.50;1.20;;;;;;;2.42;59.87;96000.75;5093734;28;20070;-65
2021/12/01 06:43:34;;;;;;;1.40;1.30;;;;;;;2.31;59.79;95999.19;5093522;28;20478;-63
2021/12/01 06:46:00;;;;;;;2.20;1.23;;;;;;;2.04;59.81;96010.75;5093505;28;20087;-62
2021/12/01 06:48:26;;;;;;;1.30;1.20;;;;;;;1.86;59.08;96020.38;5093626;28;20504;-66
2021/12/01 06:50:52;;;;;;;1.45;1.13;;;;;;;1.73;56.76;96019.69;5093647;28;20024;-64
2021/12/01 06:53:17;;;;;;;1.92;1.30;;;;;;;1.64;56.25;96015.47;5093541;28;20106;-64
2021/12/01 06:55:43;;;;;;;2.33;1.40;;;;;;;1.54;59.03;96019.91;5093377;28;20136;-63
2021/12/01 06:58:09;;;;;;;1.70;1.38;;;;;;;1.48;58.74;96010.47;5093366;28;20482;-63
2021/12/01 07:00:36;;;;;;;2.90;1.30;;;;;;;1.43;59.07;96021.72;5093359;28;20035;-63
2021/12/01 07:03:01;;;;;;;2.35;1.20;;;;;;;2.35;56.13;96026.66;5093424;28;20016;-67
2021/12/01 07:05:27;;;;;;;2.08;1.15;;;;;;;3.98;54.54;96037.78;5093233;28;20043;-68
2021/12/01 07:07:54;;;;;;;1.15;1.05;;;;;;;4.65;50.88;96017.38;5093338;28;20358;-64
2021/12/01 07:10:20;;;;;;;1.23;1.13;;;;;;;4.55;48.63;96009.81;5093196;28;20020;-65
2021/12/01 07:12:46;;;;;;;1.48;0.95;;;;;;;5.96;48.30;96003.72;5093274;28;20344;-64
2021/12/01 07:15:12;;;;;;;1.92;1.40;;;;;;;7.54;44.76;96014.53;5093172;28;20058;-67
2021/12/01 07:17:40;;;;;;;1.35;1.25;;;;;;;8.11;46.69;96011.66;5093010;28;20027;-63
2021/12/01 07:20:07;;;;;;;1.98;1.50;;;;;;;7.82;44.91;96010.94;5093180;28;20413;-67
2021/12/01 07:22:32;;;;;;;1.27;1.10;;;;;;;9.01;37.19;95997.00;5093002;28;20040;-66
2021/12/01 07:24:58;;;;;;;2.17;1.30;;;;;;;10.58;34.96;96014.72;5093180;28;20070;-63
2021/12/01 07:27:23;;;;;;;3.40;1.00;;;;;;;12.15;34.35;96021.94;5092952;28;20024;-65
2021/12/01 07:29:49;;;;;;;4.47;1.15;;;;;;;13.75;31.47;96020.16;5095274;28;20111;-66
2021/12/01 07:32:15;;;;;;;1.77;1.00;;;;;;;14.61;28.78;96012.41;5097169;28;20414;-63
2021/12/01 07:34:42;;;;;;;1.65;0.80;;;;;;;15.72;27.49;96000.06;5097143;28;20030;-68
2021/12/01 07:37:12;;;;;;;1.30;1.08;;;;;;;16.84;26.20;96004.75;5097087;28;20066;-68
2021/12/01 07:39:38;;;;;;;1.42;1.33;;;;;;;18.43;24.79;96003.59;5096961;28;20028;-65
2021/12/01 07:42:05;;;;;;;1.40;0.80;;;;;;;19.41;22.33;95991.50;5096986;28;20089;-68
2021/12/01 07:44:31;;;;;;;1.42;1.20;;;;;;;19.53;23.18;95993.13;5096950;28;20493;-63
2021/12/01 07:46:56;;;;;;;1.15;0.95;;;;;;;19.35;22.20;95982.22;5096851;28;20024;-65
2021/12/01 07:49:22;;;;;;;0.75;0.70;;;;;;;18.88;22.14;95986.00;5096821;28;20021;-66
2021/12/01 07:51:48;;;;;;;2.78;1.08;;;;;;;19.26;21.39;96002.41;5096836;28;20103;-68
2021/12/01 07:54:14;;;;;;;1.05;0.82;;;;;;;19.50;20.14;96006.63;5096904;28;20031;-68
2021/12/01 07:56:39;;;;;;;1.10;0.85;;;;;;;19.62;21.59;96014.56;5096826;28;20016;-66
2021/12/01 07:59:05;;;;;;;0.73;0.68;;;;;;;20.17;21.38;96016.22;5096682;28;20028;-67
2021/12/01 08:01:30;;;;;;;4.20;0.90;;;;;;;20.72;19.86;96004.44;5096687;28;20020;-70
2021/12/01 08:03:56;;;;;;;0.80;0.80;;;;;;;20.65;20.66;96011.25;5096679;28;20024;-67
2021/12/01 08:06:22;;;;;;;0.73;0.73;;;;;;;20.82;19.62;96002.63;5096500;28;20099;-65
2021/12/01 08:08:48;;;;;;;1.98;0.90;;;;;;;20.57;19.87;95988.00;5096421;28;20063;-68
2021/12/01 08:11:14;;;;;;;1.92;0.90;;;;;;;21.56;20.33;95996.19;5095183;28;20056;-65
2021/12/01 08:13:39;;;;;;;1.05;0.70;;;;;;;21.79;19.77;95990.59;5096371;28;20024;-67
2021/12/01 08:16:06;;;;;;;0.85;0.63;;;;;;;21.13;18.71;95993.75;5096306;28;20016;-66
2021/12/01 08:18:32;;;;;;;0.90;0.90;;;;;;;20.83;20.01;96004.31;5096147;28;20115;-65
2021/12/01 08:20:58;;;;;;;0.80;0.80;;;;;;;19.24;22.20;96003.50;5096169;28;20074;-65
2021/12/01 08:23:25;;;;;;;1.00;0.90;;;;;;;19.34;22.37;95993.81;5096182;28;20021;-65
2021/12/01 08:25:50;;;;;;;41.72;27.38;;;;;;;18.43;23.56;96008.06;5096148;28;20035;-66
2021/12/01 08:28:16;;;;;;;6.80;4.65;;;;;;;16.93;25.08;96011.16;5096155;28;20119;-64
2021/12/01 08:30:42;;;;;;;1.38;0.93;;;;;;;15.72;26.14;96020.31;5096152;28;20028;-65
2021/12/01 08:33:08;;;;;;;1.13;0.93;;;;;;;15.18;26.79;96016.78;5095975;28;20535;-66
2021/12/01 08:35:34;;;;;;;1.65;1.20;;;;;;;15.34;27.43;96012.22;5095911;28;20020;-65
2021/12/01 08:37:59;;;;;;;1.88;1.23;;;;;;;14.84;28.04;96006.66;5095849;28;20374;-67
2021/12/01 08:40:25;;;;;;;1.50;1.10;;;;;;;14.48;29.54;96019.38;5095319;28;20359;-67
2021/12/01 08:42:51;;;;;;;0.95;0.93;;;;;;;13.94;30.17;96010.34;5095654;28;20016;-61
2021/12/01 08:45:17;;;;;;;1.17;1.08;;;;;;;13.47;31.63;96013.03;5095867;28;20418;-68
2021/12/01 08:47:44;;;;;;;1.02;0.98;;;;;;;12.64;32.84;96012.34;5095805;28;20047;-66
2021/12/01 08:50:10;;;;;;;1.15;1.02;;;;;;;12.04;33.34;96019.84;5095758;28;20047;-64
2021/12/01 08:52:38;;;;;;;1.40;1.20;;;;;;;11.80;32.83;96027.22;5095675;28;20031;-63
2021/12/01 08:55:04;;;;;;;1.92;1.00;;;;;;;11.19;34.84;96015.34;5095802;28;20378;-64
2021/12/01 08:57:30;;;;;;;1.15;1.00;;;;;;;10.81;38.01;96021.47;5095542;28;20016;-64
2021/12/01 08:59:56;;;;;;;11.40;5.50;;;;;;;10.54;37.78;96029.69;5095612;28;20430;-64
2021/12/01 09:02:21;;;;;;;1.48;1.33;;;;;;;10.38;37.90;96023.47;5095518;28;20034;-67
2021/12/01 09:04:50;;;;;;;2.15;1.20;;;;;;;10.19;38.95;96013.81;5095433;28;20046;-63
2021/12/01 09:07:19;;;;;;;1.67;1.10;;;;;;;10.41;38.48;96018.09;5095401;28;20499;-64
2021/12/01 09:09:46;;;;;;;1.75;1.10;;;;;;;10.13;38.72;96014.09;5095407;28;20031;-63
2021/12/01 09:12:14;;;;;;;1.42;1.15;;;;;;;10.01;40.03;96010.25;5095270;28;20103;-65
2021/12/01 09:14:40;;;;;;;2.38;1.27;;;;;;;9.87;39.16;96011.72;5095181;28;20027;-67
2021/12/01 09:17:06;;;;;;;1.33;1.20;;;;;;;9.86;39.97;96000.44;5095268;28;20030;-66
2021/12/01 09:19:31;;;;;;;1.27;1.17;;;;;;;9.73;40.42;95991.44;5095161;28;20024;-69
2021/12/01 09:21:58;;;;;;;1.52;1.30;;;;;;;9.43;39.59;95990.06;5094804;28;20094;-65
2021/12/01 09:24:24;;;;;;;1.63;1.42;;;;;;;9.31;41.42;95986.22;5095057;28;20036;-61
2021/12/01 09:26:50;;;;;;;1.45;1.08;;;;;;;9.41;42.80;95994.50;5094875;28;20360;-64
2021/12/01 09:29:17;;;;;;;1.88;1.20;;;;;;;9.35;43.12;95995.63;5094931;28;20031;-67
2021/12/01 09:31:42;;;;;;;1.50;1.33;;;;;;;9.28;42.69;95975.03;5094918;28;20016;-64
2021/12/01 09:34:08;;;;;;;14.88;8.45;;;;;;;9.35;42.04;95992.16;5094892;28;20020;-64
2021/12/01 09:36:34;;;;;;;2.38;1.92;;;;;;;9.31;42.77;95988.81;5094718;28;20020;-66
2021/12/01 09:38:59;;;;;;;1.10;1.00;;;;;;;9.42;43.59;95993.56;5094641;28;20031;-66
2021/12/01 09:41:25;;;;;;;4.40;1.70;;;;;;;9.59;42.72;96000.72;5094607;28;20555;-66
2021/12/01 09:43:51;;;;;;;2.05;1.40;;;;;;;9.48;42.63;95993.31;5094561;28;20486;-64
2021/12/01 09:46:18;;;;;;;1.90;1.40;;;;;;;9.51;43.64;95986.28;5094640;28;20390;-65
2021/12/01 09:48:44;;;;;;;1.98;1.27;;;;;;;9.57;43.02;95978.19;5094492;28;20381;-62
2021/12/01 09:51:12;;;;;;;1.55;1.40;;;;;;;9.67;44.09;95969.06;5094553;28;20024;-65
2021/12/01 09:53:38;;;;;;;2.08;1.35;;;;;;;9.57;41.34;95965.16;5094473;28;20386;-63
2021/12/01 09:56:04;;;;;;;1.85;1.52;;;;;;;9.63;43.41;95964.03;5094523;28;20022;-64
2021/12/01 09:58:31;;;;;;;2.20;1.40;;;;;;;9.65;42.60;95963.03;5094235;28;20028;-66
2021/12/01 10:01:00;;;;;;;1.25;1.13;;;;;;;9.67;42.65;95958.59;5094337;28;20035;-63
2021/12/01 10:03:27;;;;;;;5.00;1.45;;;;;;;9.60;42.65;95960.63;5094271;28;20389;-65
2021/12/01 10:06:11;;;;;;;1.40;1.30;;;;;;;9.52;43.11;95962.72;5094251;28;20016;-68
2021/12/01 10:08:52;;;;;;;1.58;1.20;;;;;;;9.66;44.00;95953.44;5094125;28;20044;-68
2021/12/01 10:11:19;;;;;;;5.40;1.50;;;;;;;9.73;42.46;95957.47;5094213;28;20029;-63
2021/12/01 10:13:49;;;;;;;3.45;1.42;;;;;;;9.82;43.32;95959.66;5094117;28;20107;-63
2021/12/01 10:16:18;;;;;;;1.48;1.38;;;;;;;10.04;42.26;95955.25;5094160;28;20114;-67
2021/12/01 10:18:48;;;;;;;1.63;1.10;;;;;;;10.06;42.30;95956.88;5094190;28;20039;-66
2021/12/01 10:21:18;;;;;;;3.38;1.35;;;;;;;10.26;44.08;95947.28;5093927;28;20044;-65
2021/12/01 10:23:47;;;;;;;1.17;1.02;;;;;;;10.49;42.71;95951.47;5094012;28;20032;-64
2021/12/01 10:26:29;;;;;;;2.45;1.20;;;;;;;10.69;44.34;95947.03;5093990;28;20367;-66
2021/12/01 10:29:08;;;;;;;1.50;1.00;;;;;;;10.94;42.26;95943.25;5093770;28;20051;-65
2021/12/01 10:31:38;;;;;;;2.47;1.30;;;;;;;11.26;40.89;95947.81;5093874;28;20101;-63
2021/12/01 10:34:23;;;;;;;2.22;1.48;;;;;;;11.43;40.55;95936.47;5093666;28;20036;-66
2021/12/01 10:37:15;;;;;;;4.00;1.35;;;;;;;11.43;42.52;95943.47;5093789;28;20032;-67
2021/12/01 10:39:45;;;;;;;2.08;1.80;;;;;;;11.40;42.32;95954.97;5093532;28;20024;-67
2021/12/01 10:42:15;;;;;;;2.15;1.40;;;;;;;11.58;40.88;95947.09;5093670;28;20028;-68
2021/12/01 10:45:01;;;;;;;2.95;1.55;;;;;;;11.69;41.36;95946.53;5093559;28;20077;-68
2021/12/01 10:47:40;;;;;;;3.05;1.92;;;;;;;11.54;43.08;95933.31;5093690;28;20020;-66
2021/12/01 10:50:07;;;;;;;1.10;1.05;;;;;;;11.34;42.60;95935.19;5093514;28;20045;-62
2021/12/01 10:52:52;;;;;;;2.17;0.85;;;;;;;11.27;42.19;95931.19;5093462;28;20019;-66
2021/12/01 10:55:20;;;;;;;4.90;1.15;;;;;;;11.30;40.79;95931.03;5074364;28;20032;-68
2021/12/01 10:57:55;;;;;;;0.85;0.85;;;;;;;11.25;41.85;95939.13;5091376;28;20371;-63
2021/12/01 11:00:23;;;;;;;3.65;0.80;;;;;;;11.23;40.76;95946.19;5091273;28;20044;-62
2021/12/01 11:02:51;;;;;;;1.35;0.90;;;;;;;11.13;41.44;95944.94;5091149;28;20036;-66
2021/12/01 11:05:28;;;;;;;0.70;0.70;;;;;;;11.08;41.45;95941.72;5090776;28;20036;-66
2021/12/01 11:07:54;;;;;;;0.75;0.75;;;;;;;11.11;42.13;95941.59;5091307;28;20628;-65
2021/12/01 11:10:23;;;;;;;0.90;0.63;;;;;;;11.10;41.99;95948.56;5091196;28;20044;-67
2021/12/01 11:12:56;;;;;;;0.77;0.70;;;;;;;11.00;41.28;95934.25;5091000;28;20039;-65
2021/12/01 11:15:25;;;;;;;27.15;14.35;;;;;;;10.96;40.53;95935.34;5090578;28;20024;-67
2021/12/01 11:17:51;;;;;;;1.95;1.35;;;;;;;10.94;39.46;95926.69;5090902;28;20034;-64
2021/12/01 11:20:35;;;;;;;1.75;0.93;;;;;;;10.86;40.64;95924.47;5091076;28;20076;-62
2021/12/01 11:23:14;;;;;;;0.50;0.50;;;;;;;10.79;40.20;95928.28;5090991;28;20059;-64
2021/12/01 11:25:42;;;;;;;2.20;0.80;;;;;;;10.73;40.02;95925.06;5091384;28;20032;-64
2021/12/01 11:28:13;;;;;;;0.98;0.82;;;;;;;10.58;41.62;95926.66;5093082;28;20050;-63
2021/12/01 11:30:41;;;;;;;1.63;0.90;;;;;;;10.29;43.53;95933.25;5093067;28;20375;-65
2021/12/01 11:33:11;;;;;;;2.22;0.90;;;;;;;10.17;43.56;95925.03;5093051;28;20024;-65
2021/12/01 11:35:36;;;;;;;0.82;0.63;;;;;;;10.06;42.71;95928.13;5092931;28;20041;-65
2021/12/01 11:38:02;;;;;;;1.60;1.00;;;;;;;9.78;44.77;95926.75;5092967;28;20383;-64
2021/12/01 11:40:30;;;;;;;1.67;1.20;;;;;;;9.76;44.92;95918.16;5093047;28;20030;-67
2021/12/01 11:42:57;;;;;;;1.20;1.10;;;;;;;9.68;46.25;95918.50;5092994;28;20457;-65
2021/12/01 11:45:23;;;;;;;1.42;1.33;;;;;;;9.56;46.11;95922.50;5092905;28;20016;-67